Time;durP1;ratioP1;P1;durP2;ratioP2;P2;SDS_P1;SDS_P2;PMS_P1;PMS_P2;Temp;Humidity;BMP_temperature;BMP_pressure;BME280_temperature;BME280_humidity;BME280_pressure;Samples;Min_cycle;Max_cycle;Signal;HPM_P1;HPM_P2
2022/06/10 00:02:04;;;;;;;11.43;3.00;;;;;;;29.15;26.30;100962.41;5068375;28;20031;-57
2022/06/10 00:04:32;;;;;;;9.82;3.00;;;;;;;29.07;26.78;100967.91;5062797;28;20032;-58
2022/06/10 00:06:59;;;;;;;11.52;3.00;;;;;;;28.68;27.32;100961.47;5059846;28;20020;-60
2022/06/10 00:09:25;;;;;;;13.77;3.30;;;;;;;28.38;27.82;100961.31;5059343;28;20040;-59
2022/06/10 00:11:51;;;;;;;9.52;3.00;;;;;;;27.94;28.22;100958.78;5066211;28;20103;-61
2022/06/10 00:14:18;;;;;;;17.27;3.78;;;;;;;27.64;28.44;100969.47;5067891;28;20021;-59
2022/06/10 00:16:44;;;;;;;11.23;3.08;;;;;;;27.26;29.77;100964.47;5071527;28;20074;-58
2022/06/10 00:19:10;;;;;;;11.27;3.08;;;;;;;27.07;30.39;100953.69;5070404;28;20029;-58
2022/06/10 00:21:36;;;;;;;12.48;3.00;;;;;;;27.22;32.15;100966.22;5056590;28;20025;-56
2022/06/10 00:24:02;;;;;;;13.45;3.47;;;;;;;26.86;30.76;100952.53;5071740;28;20108;-63
2022/06/10 00:26:29;;;;;;;15.95;3.38;;;;;;;26.70;31.09;100952.09;5068121;28;20052;-61
2022/06/10 00:28:59;;;;;;;12.15;3.45;;;;;;;26.59;30.45;100965.25;5070704;28;20123;-60
2022/06/10 00:31:26;;;;;;;13.20;3.78;;;;;;;26.24;30.89;100961.38;5070717;28;20037;-61
2022/06/10 00:33:53;;;;;;;14.40;3.58;;;;;;;26.02;31.56;100962.13;5071718;28;20032;-59
2022/06/10 00:36:20;;;;;;;11.93;3.30;;;;;;;25.96;31.34;100955.13;5070756;28;20037;-59
2022/06/10 00:38:48;;;;;;;14.35;3.42;;;;;;;26.09;31.71;100945.25;5068521;28;20106;-60
2022/06/10 00:41:14;;;;;;;10.98;3.47;;;;;;;26.06;31.31;100954.09;5070512;28;20449;-59
2022/06/10 00:43:40;;;;;;;10.43;3.30;;;;;;;26.21;32.03;100948.28;5068410;28;20036;-57
2022/06/10 00:46:18;;;;;;;8.45;3.00;;;;;;;26.27;31.22;100949.81;5069426;28;20111;-58
2022/06/10 00:48:55;;;;;;;8.93;2.50;;;;;;;26.30;31.80;100945.63;5071794;28;20107;-59
2022/06/10 00:51:29;;;;;;;8.52;3.22;;;;;;;26.58;30.92;100944.44;5068408;28;20025;-59
2022/06/10 00:54:22;;;;;;;8.15;2.22;;;;;;;26.89;31.33;100945.63;5070039;28;20020;-59
2022/06/10 00:56:58;;;;;;;12.57;3.33;;;;;;;27.07;31.73;100941.88;5071347;28;20047;-59
2022/06/10 00:59:47;;;;;;;16.67;3.92;;;;;;;27.33;31.79;100947.53;5070628;28;20021;-59
2022/06/10 01:02:19;;;;;;;14.30;2.83;;;;;;;27.41;31.92;100940.44;5071347;28;20456;-59
2022/06/10 01:04:46;;;;;;;11.25;2.80;;;;;;;27.15;30.39;100937.56;5072490;28;20123;-58
2022/06/10 01:07:16;;;;;;;8.38;2.90;;;;;;;27.27;30.85;100933.13;5074765;28;20094;-58
2022/06/10 01:09:43;;;;;;;9.48;2.70;;;;;;;27.49;29.04;100929.50;5073826;28;20028;-58
2022/06/10 01:12:28;;;;;;;10.45;3.00;;;;;;;27.68;29.07;100931.16;5074263;28;20028;-58
2022/06/10 01:15:27;;;;;;;12.32;2.83;;;;;;;27.88;28.87;100922.38;5074115;28;20089;-58
2022/06/10 01:18:06;;;;;;;6.00;2.72;;;;;;;28.06;28.04;100921.25;5055720;28;20033;-59
2022/06/10 01:20:39;;;;;;;11.50;3.17;;;;;;;28.43;29.25;100916.28;5060206;28;20043;-57
2022/06/10 01:23:14;;;;;;;6.95;2.33;;;;;;;28.67;29.10;100911.06;5075548;28;20381;-58
2022/06/10 01:26:13;;;;;;;9.75;2.60;;;;;;;28.72;27.95;100915.59;5073502;28;20033;-58
2022/06/10 01:28:54;;;;;;;13.98;2.95;;;;;;;28.92;28.54;100914.09;5064628;28;20036;-57
2022/06/10 01:31:48;;;;;;;9.85;2.78;;;;;;;29.07;29.83;100929.34;5073185;28;20031;-58
2022/06/10 01:34:46;;;;;;;9.73;2.88;;;;;;;29.23;29.53;100932.38;5061762;28;20033;-57
2022/06/10 01:37:23;;;;;;;11.18;2.95;;;;;;;29.33;29.63;100923.75;5057086;28;20039;-58
2022/06/10 01:40:05;;;;;;;9.05;2.97;;;;;;;29.39;27.67;100925.19;5072959;28;20541;-58
2022/06/10 01:42:38;;;;;;;10.88;2.45;;;;;;;29.33;27.66;100929.25;5068915;28;20040;-75
2022/06/10 01:45:07;;;;;;;10.23;2.83;;;;;;;29.34;28.00;100933.63;5061433;28;20064;-65
2022/06/10 01:47:37;;;;;;;6.93;2.50;;;;;;;29.16;28.77;100943.91;5079429;28;20177;-58
2022/06/10 01:50:12;;;;;;;7.90;2.72;;;;;;;29.10;28.56;100943.28;5070359;28;20473;-58
2022/06/10 01:52:46;;;;;;;10.20;2.47;;;;;;;29.08;29.42;100944.72;5062292;28;20423;-58
2022/06/10 01:55:28;;;;;;;8.10;2.67;;;;;;;29.18;27.85;100947.94;5074224;28;20029;-58
2022/06/10 01:57:54;;;;;;;6.25;2.10;;;;;;;29.32;27.94;100950.50;5072425;28;20122;-58
2022/06/10 02:00:24;;;;;;;10.88;2.70;;;;;;;29.44;28.08;100941.53;5074389;28;20475;-59
2022/06/10 02:03:04;;;;;;;10.50;2.50;;;;;;;29.32;28.20;100938.69;5073389;28;20410;-58
2022/06/10 02:05:40;;;;;;;14.45;3.25;;;;;;;29.34;28.27;100947.41;5060874;28;20056;-58
2022/06/10 02:08:14;;;;;;;7.97;2.63;;;;;;;29.40;28.25;100940.56;5053939;28;20021;-57
2022/06/10 02:11:01;;;;;;;10.27;2.75;;;;;;;29.18;29.38;100939.69;5062132;28;20550;-57
2022/06/10 02:13:33;;;;;;;8.10;2.47;;;;;;;29.64;29.09;100951.03;5072951;28;20078;-57
2022/06/10 02:16:02;;;;;;;9.00;2.83;;;;;;;29.88;28.31;100951.25;5070476;28;20024;-57
2022/06/10 02:18:43;;;;;;;9.45;2.38;;;;;;;29.64;27.96;100940.81;5072933;23;20068;-57
2022/06/10 02:21:24;;;;;;;9.40;2.80;;;;;;;29.59;28.61;100952.03;5070645;28;20024;-57
2022/06/10 02:24:02;;;;;;;8.13;2.63;;;;;;;29.54;29.29;100955.00;5073600;28;20024;-57
2022/06/10 02:26:32;;;;;;;11.43;2.85;;;;;;;28.90;30.72;100952.19;5074108;28;20024;-57
2022/06/10 02:29:03;;;;;;;12.07;3.10;;;;;;;29.18;30.87;100953.44;5073715;28;20044;-57
2022/06/10 02:31:40;;;;;;;7.90;2.30;;;;;;;29.24;30.13;100959.59;5074143;28;20078;-57
2022/06/10 02:34:07;;;;;;;7.10;2.55;;;;;;;29.03;30.60;100959.47;5074178;28;20020;-58
2022/06/10 02:36:50;;;;;;;9.13;2.63;;;;;;;28.76;29.93;100960.66;5073443;28;20097;-57
2022/06/10 02:39:33;;;;;;;9.70;2.85;;;;;;;28.58;29.94;100970.84;5073592;28;20041;-59
2022/06/10 02:42:26;;;;;;;11.10;2.72;;;;;;;28.47;30.22;100968.75;5063841;28;20021;-58
2022/06/10 02:45:09;;;;;;;10.57;3.10;;;;;;;28.53;31.00;100965.50;5050652;28;20150;-57
2022/06/10 02:47:51;;;;;;;10.50;3.28;;;;;;;28.65;30.52;100976.69;5062520;28;20463;-58
2022/06/10 02:50:17;;;;;;;12.23;2.97;;;;;;;28.62;30.89;100971.81;5071682;28;20368;-57
2022/06/10 02:52:45;;;;;;;7.55;2.47;;;;;;;28.26;31.59;100994.16;5072850;28;20071;-58
2022/06/10 02:55:18;;;;;;;7.65;3.15;;;;;;;28.24;31.38;100998.34;5070691;28;20039;-58
2022/06/10 03:03:53;;;;;;;10.48;3.03;;;;;;;27.40;33.67;101002.84;5058514;28;19966;-57
2022/06/10 03:06:30;;;;;;;10.95;3.33;;;;;;;26.82;34.57;100999.06;5052642;28;20029;-58
2022/06/10 03:09:12;;;;;;;9.82;3.00;;;;;;;26.26;35.37;100996.72;5053743;28;20601;-57
2022/06/10 03:11:48;;;;;;;12.35;3.08;;;;;;;26.19;35.29;100993.59;5049557;28;20118;-56
2022/06/10 03:14:23;;;;;;;13.68;3.75;;;;;;;25.97;36.01;100995.16;5038373;28;20578;-57
2022/06/10 03:16:56;;;;;;;16.02;4.18;;;;;;;25.72;36.54;100993.72;5043277;28;20033;-57
2022/06/10 03:19:47;;;;;;;11.60;3.38;;;;;;;25.26;37.12;101000.03;5032439;28;20486;-57
2022/06/10 03:22:29;;;;;;;8.77;3.08;;;;;;;24.73;38.33;101004.97;5032571;28;20036;-57
2022/06/10 03:25:16;;;;;;;12.10;3.63;;;;;;;24.63;38.52;100999.66;5032374;28;20612;-58
2022/06/10 03:28:00;;;;;;;11.02;2.95;;;;;;;24.48;39.11;100998.75;5032002;28;20041;-57
2022/06/10 03:30:34;;;;;;;11.82;3.63;;;;;;;24.12;40.01;101008.53;5044834;28;20033;-52
2022/06/10 03:33:11;;;;;;;22.48;4.35;;;;;;;23.82;40.99;101013.25;5035490;28;20171;-58
2022/06/10 03:36:03;;;;;;;15.57;3.25;;;;;;;23.49;41.88;101016.84;5048879;28;20017;-57
2022/06/10 03:38:38;;;;;;;14.50;3.42;;;;;;;23.63;41.59;101012.34;5047034;28;20448;-57
2022/06/10 03:41:04;;;;;;;11.32;3.85;;;;;;;23.49;41.75;101011.38;5033543;28;20025;-58
2022/06/10 03:43:40;;;;;;;12.20;3.20;;;;;;;23.40;41.65;101011.19;5050757;28;20040;-58
2022/06/10 03:46:11;;;;;;;13.52;4.03;;;;;;;23.43;41.86;101018.78;5042406;28;20472;-58
2022/06/10 03:48:40;;;;;;;11.63;3.40;;;;;;;23.21;42.42;101013.81;5052105;28;20029;-58
2022/06/10 03:51:09;;;;;;;17.13;4.60;;;;;;;23.08;42.29;101018.00;5052352;28;20031;-57
2022/06/10 03:53:35;;;;;;;13.27;3.22;;;;;;;23.00;43.10;101018.63;5052745;28;20095;-58
2022/06/10 03:56:01;;;;;;;12.95;3.75;;;;;;;23.10;42.93;101031.41;5052160;28;20028;-58
2022/06/10 03:58:27;;;;;;;12.02;3.85;;;;;;;23.00;42.79;101018.63;5051865;28;20024;-58
2022/06/10 04:00:54;;;;;;;17.05;4.05;;;;;;;22.90;43.51;101024.97;5052302;28;20437;-58
2022/06/10 04:03:20;;;;;;;13.52;4.75;;;;;;;22.84;43.24;101023.34;5036212;28;20033;-58
2022/06/10 04:05:46;;;;;;;11.52;3.88;;;;;;;22.58;43.48;101028.13;5032304;28;20567;-58
2022/06/10 04:08:12;;;;;;;12.77;3.67;;;;;;;22.35;44.17;101029.63;5034874;28;20025;-58
2022/06/10 04:10:38;;;;;;;12.60;3.72;;;;;;;22.43;44.02;101038.31;5049465;28;20025;-58
2022/06/10 04:13:05;;;;;;;14.43;3.50;;;;;;;22.22;44.90;101045.78;5041562;28;20344;-58
2022/06/10 04:15:32;;;;;;;12.98;3.65;;;;;;;22.15;45.25;101046.06;5050108;28;20028;-58
2022/06/10 04:17:59;;;;;;;10.63;3.15;;;;;;;22.02;45.49;101057.53;5029625;28;20057;-58
2022/06/10 04:20:33;;;;;;;12.55;3.63;;;;;;;21.81;46.28;101060.31;5032046;28;20036;-57
2022/06/10 04:22:59;;;;;;;12.80;3.67;;;;;;;21.67;46.84;101061.97;5038097;28;20029;-58
2022/06/10 04:25:25;;;;;;;17.83;3.95;;;;;;;21.09;48.58;101067.66;5031422;28;20711;-58
2022/06/10 04:27:52;;;;;;;13.27;3.65;;;;;;;21.18;48.65;101059.78;5031122;28;20489;-58
2022/06/10 04:30:40;;;;;;;11.70;3.50;;;;;;;21.25;48.27;101070.41;5046712;28;20036;-58
2022/06/10 04:33:06;;;;;;;9.35;3.03;;;;;;;21.45;48.26;101075.88;5051479;28;20021;-58
2022/06/10 04:35:36;;;;;;;11.30;3.58;;;;;;;21.33;48.26;101068.00;5041495;28;20492;-58
2022/06/10 04:38:03;;;;;;;12.10;3.58;;;;;;;21.31;48.25;101080.22;5033383;28;20022;-58
2022/06/10 04:40:31;;;;;;;15.52;3.72;;;;;;;21.28;48.52;101087.03;5053570;28;20098;-58
2022/06/10 04:42:58;;;;;;;12.82;3.67;;;;;;;21.21;49.13;101081.03;5058114;28;20102;-58
2022/06/10 04:45:28;;;;;;;14.15;4.28;;;;;;;20.91;49.64;101087.22;5055984;28;20025;-58
2022/06/10 04:47:55;;;;;;;15.85;4.53;;;;;;;20.99;50.15;101085.91;5056639;28;20056;-58
2022/06/10 04:50:24;;;;;;;9.85;3.47;;;;;;;20.87;50.11;101091.56;5057899;28;20111;-58
2022/06/10 04:52:51;;;;;;;13.00;4.18;;;;;;;21.00;49.85;101084.81;5057370;28;20384;-58
2022/06/10 04:55:19;;;;;;;17.10;3.97;;;;;;;20.87;49.94;101090.75;5047133;28;20025;-58
2022/06/10 04:57:46;;;;;;;11.52;3.60;;;;;;;20.84;49.49;101097.56;5053762;28;20029;-58
2022/06/10 05:00:22;;;;;;;9.95;3.80;;;;;;;20.81;50.01;101096.19;5047323;28;20029;-57
2022/06/10 05:02:48;;;;;;;12.55;3.35;;;;;;;20.64;49.97;101101.03;5042164;28;20051;-58
2022/06/10 05:05:15;;;;;;;13.07;3.38;;;;;;;20.41;50.61;101109.59;5039801;28;20367;-57
2022/06/10 05:07:41;;;;;;;8.80;2.72;;;;;;;20.43;50.81;101104.72;5037506;28;20033;-58
2022/06/10 05:10:08;;;;;;;13.85;4.35;;;;;;;20.39;50.36;101103.63;5037854;28;20063;-58
2022/06/10 05:12:34;;;;;;;16.70;3.50;;;;;;;20.40;51.00;101108.78;5037805;28;20469;-58
2022/06/10 05:15:00;;;;;;;14.85;3.50;;;;;;;20.30;51.03;101109.53;5057210;28;20033;-58
2022/06/10 05:17:27;;;;;;;11.98;3.67;;;;;;;20.45;50.91;101110.72;5057405;28;20040;-58
2022/06/10 05:19:53;;;;;;;14.77;3.25;;;;;;;20.23;52.14;101124.47;5057484;28;20029;-58
2022/06/10 05:22:19;;;;;;;16.15;4.00;;;;;;;20.22;52.24;101112.78;5057794;28;20059;-58
2022/06/10 05:24:45;;;;;;;20.27;3.85;;;;;;;20.06;52.55;101116.50;5057982;28;20477;-58
2022/06/10 05:27:12;;;;;;;13.80;4.00;;;;;;;20.20;52.01;101114.09;5057845;28;20052;-58
2022/06/10 05:29:38;;;;;;;14.15;3.63;;;;;;;20.10;52.37;101123.03;5056995;28;20021;-58
2022/06/10 05:32:05;;;;;;;13.80;4.35;;;;;;;19.79;53.04;101124.72;5057570;28;20108;-58
2022/06/10 05:37:27;;;;;;;16.35;3.95;;;;;;;19.53;54.69;101126.38;5040018;28;20040;-58
2022/06/10 05:39:55;;;;;;;14.80;4.75;;;;;;;19.47;55.20;101136.38;5057376;28;20029;-58
2022/06/10 05:42:21;;;;;;;18.10;4.20;;;;;;;19.45;55.58;101135.00;5056915;28;20036;-58
2022/06/10 05:44:51;;;;;;;18.20;4.32;;;;;;;19.40;55.85;101134.97;5057351;28;20043;-58
2022/06/10 05:47:21;;;;;;;12.02;4.15;;;;;;;19.18;56.71;101135.84;5057129;28;20021;-58
2022/06/10 05:49:50;;;;;;;14.40;3.58;;;;;;;19.36;55.91;101131.94;5052643;28;20103;-58
2022/06/10 05:52:19;;;;;;;15.88;4.45;;;;;;;19.31;56.43;101126.44;5054305;28;20032;-58
2022/06/10 05:54:47;;;;;;;11.88;4.00;;;;;;;19.49;55.77;101136.94;5052573;28;20492;-58
2022/06/10 05:57:14;;;;;;;16.38;4.38;;;;;;;19.48;55.70;101129.03;5052476;28;20040;-59
2022/06/10 05:59:41;;;;;;;19.63;4.28;;;;;;;19.50;56.48;101121.47;5051600;28;20037;-59
2022/06/10 06:02:12;;;;;;;13.35;4.00;;;;;;;19.39;56.39;101114.31;5051376;28;20032;-60
2022/06/10 06:04:38;;;;;;;16.45;4.80;;;;;;;19.35;56.42;101113.19;5050426;28;20450;-58
2022/06/10 06:07:04;;;;;;;15.68;3.75;;;;;;;19.17;57.27;101117.09;5052276;28;20025;-59
2022/06/10 06:09:31;;;;;;;13.93;3.88;;;;;;;19.08;57.62;101124.88;5051624;28;20111;-59
2022/06/10 06:11:57;;;;;;;16.58;4.40;;;;;;;19.12;57.57;101119.75;5051425;28;20701;-59
2022/06/10 06:14:26;;;;;;;13.15;3.78;;;;;;;19.11;58.11;101118.13;5052817;28;20032;-59
2022/06/10 06:17:00;;;;;;;14.18;4.10;;;;;;;18.92;58.85;101114.94;5052531;28;20132;-60
2022/06/10 06:19:28;;;;;;;15.60;4.25;;;;;;;18.97;58.87;101106.84;5052331;28;20059;-59
2022/06/10 06:21:55;;;;;;;13.27;4.03;;;;;;;19.03;58.71;101108.53;5052626;28;20040;-59
2022/06/10 06:24:21;;;;;;;21.05;3.88;;;;;;;19.07;58.73;101106.97;5050899;28;20025;-59
2022/06/10 06:26:48;;;;;;;18.55;4.45;;;;;;;19.04;58.92;101104.75;5051877;28;20044;-59
2022/06/10 06:29:14;;;;;;;15.32;4.00;;;;;;;19.04;58.35;101115.59;5052195;28;20503;-59
2022/06/10 06:31:41;;;;;;;15.05;4.57;;;;;;;19.02;57.88;101115.03;5052265;28;20040;-59
2022/06/10 06:34:08;;;;;;;19.52;4.68;;;;;;;18.76;58.90;101115.81;5052570;28;20104;-60
2022/06/10 06:36:42;;;;;;;16.38;4.10;;;;;;;18.98;58.30;101109.28;5053638;28;20035;-60
2022/06/10 06:39:08;;;;;;;21.60;4.65;;;;;;;19.03;58.16;101111.25;5051373;28;20491;-60
2022/06/10 06:41:34;;;;;;;14.88;3.92;;;;;;;18.86;58.72;101110.53;5053232;28;20114;-60
2022/06/10 06:44:04;;;;;;;22.65;4.82;;;;;;;18.90;58.47;101122.50;5051197;28;20032;-60
2022/06/10 06:46:34;;;;;;;17.98;3.83;;;;;;;18.97;58.61;101118.50;5051955;28;20509;-60
2022/06/10 06:49:02;;;;;;;16.00;4.25;;;;;;;18.86;58.97;101119.47;5042093;28;20075;-60
2022/06/10 06:51:29;;;;;;;15.82;4.20;;;;;;;18.81;58.45;101118.59;5053528;28;20040;-60
2022/06/10 06:53:55;;;;;;;17.85;4.30;;;;;;;18.63;59.00;101114.31;5050342;28;20458;-60
2022/06/10 06:56:21;;;;;;;14.75;3.83;;;;;;;18.76;58.30;101121.25;5052667;28;20033;-60
2022/06/10 06:58:48;;;;;;;10.82;3.25;;;;;;;18.65;58.12;101115.69;5050536;28;20052;-60
2022/06/10 07:01:14;;;;;;;18.15;4.15;;;;;;;18.70;57.82;101110.34;5049114;28;20043;-61
2022/06/10 07:03:40;;;;;;;9.45;3.83;;;;;;;18.78;57.70;101114.53;5051178;28;20025;-60
2022/06/10 07:06:07;;;;;;;16.73;4.00;;;;;;;18.71;57.92;101109.28;5051104;28;20028;-60
2022/06/10 07:08:33;;;;;;;14.75;4.03;;;;;;;18.80;57.36;101111.53;5050826;28;20036;-60
2022/06/10 07:11:02;;;;;;;15.45;3.92;;;;;;;18.80;57.21;101100.69;5051435;28;20110;-60
2022/06/10 07:13:28;;;;;;;22.00;5.13;;;;;;;18.68;58.09;101107.06;5049869;28;20033;-60
2022/06/10 07:15:56;;;;;;;15.77;3.83;;;;;;;18.67;57.95;101096.47;5052119;28;20086;-60
2022/06/10 07:18:22;;;;;;;12.70;4.00;;;;;;;18.62;58.20;101093.69;5048429;28;20065;-60
2022/06/10 07:20:49;;;;;;;10.02;3.63;;;;;;;18.45;58.73;101093.75;5032724;28;20037;-60
2022/06/10 07:23:17;;;;;;;21.85;4.68;;;;;;;18.42;59.36;101105.09;5051457;28;20470;-60
2022/06/10 07:25:43;;;;;;;13.85;4.18;;;;;;;18.43;59.61;101102.16;5051135;28;20028;-60
2022/06/10 07:28:14;;;;;;;15.07;3.85;;;;;;;18.53;59.65;101096.00;5032101;28;20464;-59
2022/06/10 07:30:41;;;;;;;23.48;5.13;;;;;;;18.48;59.80;101101.38;5049531;28;20033;-60
2022/06/10 07:33:08;;;;;;;20.23;4.30;;;;;;;18.59;59.98;101092.28;5052490;28;20025;-60
2022/06/10 07:35:35;;;;;;;15.60;4.15;;;;;;;18.39;60.50;101094.75;5051444;28;20029;-59
2022/06/10 07:38:03;;;;;;;14.05;4.32;;;;;;;18.56;60.34;101098.22;5051350;28;20503;-60
2022/06/10 07:43:20;;;;;;;15.00;4.20;;;;;;;18.51;60.86;101091.94;5050740;28;20039;-59
2022/06/10 07:45:47;;;;;;;24.38;4.72;;;;;;;18.25;62.02;101097.00;5050559;28;20112;-59
2022/06/10 07:48:14;;;;;;;17.15;3.65;;;;;;;18.44;61.93;101089.41;5051907;28;20021;-59
2022/06/10 07:50:43;;;;;;;16.67;3.90;;;;;;;18.34;62.17;101083.88;5049779;28;20054;-59
2022/06/10 07:53:10;;;;;;;14.60;5.03;;;;;;;18.30;62.25;101088.13;5034567;28;20095;-59
2022/06/10 07:55:38;;;;;;;16.63;4.45;;;;;;;18.42;61.89;101091.53;5048534;28;20025;-59
2022/06/10 07:58:05;;;;;;;16.98;3.60;;;;;;;18.46;61.25;101084.56;5050757;28;20091;-59
2022/06/10 08:00:34;;;;;;;18.65;5.07;;;;;;;18.22;62.55;101077.75;5050635;28;20474;-59
2022/06/10 08:03:01;;;;;;;18.85;4.93;;;;;;;18.24;62.46;101083.72;5050197;28;20472;-59
2022/06/10 08:05:28;;;;;;;15.35;4.75;;;;;;;18.31;62.08;101087.88;5050524;28;20102;-59
2022/06/10 08:07:55;;;;;;;17.77;4.25;;;;;;;18.40;61.98;101074.72;5049472;28;20032;-59
2022/06/10 08:10:31;;;;;;;14.43;3.80;;;;;;;18.41;61.69;101084.47;5050286;28;20559;-59
2022/06/10 08:12:57;;;;;;;17.98;4.18;;;;;;;18.03;62.94;101083.44;5050126;28;20029;-59
2022/06/10 08:15:25;;;;;;;15.63;4.60;;;;;;;17.76;64.42;101080.59;5051822;28;20024;-59
2022/06/10 08:17:51;;;;;;;21.08;5.10;;;;;;;18.14;63.21;101085.22;5049017;28;20045;-59
2022/06/10 08:22:32;;;;;;;23.90;5.22;;;;;;;18.01;62.84;101082.06;5050101;28;20075;-59
2022/06/10 08:23:11;;;;;;;21.67;4.80;;;;;;;17.98;63.07;101072.53;5051462;28;20036;-60
2022/06/10 08:25:37;;;;;;;23.42;5.38;;;;;;;18.04;62.55;101076.94;5047741;28;20067;-59
2022/06/10 08:28:04;;;;;;;15.18;4.05;;;;;;;17.98;62.59;101067.09;5050263;28;20028;-59
2022/06/10 08:30:30;;;;;;;15.48;4.18;;;;;;;17.76;62.86;101074.38;5049333;28;20021;-59
2022/06/10 08:32:56;;;;;;;26.55;4.85;;;;;;;17.98;62.23;101072.53;5051831;28;20025;-59
2022/06/10 08:35:22;;;;;;;21.05;4.28;;;;;;;17.93;62.30;101065.19;5049011;28;20028;-59
2022/06/10 08:37:49;;;;;;;18.63;4.05;;;;;;;17.88;62.65;101075.13;5050045;28;20385;-59
2022/06/10 08:40:30;;;;;;;15.50;3.72;;;;;;;18.10;62.06;101072.41;5049184;28;20022;-59
2022/06/10 08:43:20;;;;;;;13.15;4.00;;;;;;;18.02;62.02;101073.69;5051716;28;20025;-59
2022/06/10 08:46:27;;;;;;;15.02;3.83;;;;;;;17.79;62.94;101073.88;5040928;28;20051;-59
2022/06/10 08:49:24;;;;;;;15.55;4.05;;;;;;;17.86;62.80;101071.81;5021508;28;20103;-59
2022/06/10 08:52:12;;;;;;;16.40;4.88;;;;;;;17.76;62.89;101068.94;5034066;28;20040;-59
2022/06/10 08:55:03;;;;;;;18.33;4.10;;;;;;;17.71;63.60;101066.13;5048646;28;20029;-59
2022/06/10 08:57:41;;;;;;;16.17;4.25;;;;;;;17.71;63.11;101066.13;5049335;28;20029;-59
2022/06/10 09:00:23;;;;;;;16.95;4.20;;;;;;;17.91;62.57;101056.47;5044992;28;20563;-59
2022/06/10 09:03:03;;;;;;;17.08;3.38;;;;;;;17.93;62.80;101056.22;5050235;28;20040;-59
2022/06/10 09:05:57;;;;;;;14.15;3.88;;;;;;;17.84;63.06;101057.72;5049508;28;20056;-59
2022/06/10 09:08:31;;;;;;;13.68;4.05;;;;;;;17.85;62.90;101045.81;5042645;28;20037;-59
2022/06/10 09:11:13;;;;;;;16.38;4.55;;;;;;;17.81;62.95;101067.16;5049584;28;20033;-59
2022/06/10 09:13:54;;;;;;;19.17;3.80;;;;;;;17.68;63.42;101057.47;5050194;28;20489;-60
2022/06/10 09:16:26;;;;;;;17.52;3.55;;;;;;;17.77;63.21;101055.19;5047398;28;20120;-59
2022/06/10 09:19:16;;;;;;;11.02;4.45;;;;;;;17.73;63.17;101055.94;5037308;28;20045;-59
2022/06/10 09:22:14;;;;;;;15.38;4.10;;;;;;;17.90;62.97;101056.72;5049545;28;20444;-59
2022/06/10 09:24:55;;;;;;;17.10;4.25;;;;;;;17.75;63.38;101046.47;5014597;28;20393;-59
2022/06/10 09:27:27;;;;;;;11.43;3.78;;;;;;;17.59;64.27;101042.69;5053355;28;20044;-60
2022/06/10 09:29:56;;;;;;;19.67;4.75;;;;;;;17.68;64.32;101043.09;5052212;28;20123;-59
2022/06/10 09:32:30;;;;;;;17.92;4.53;;;;;;;17.56;64.45;101055.91;5035685;28;20116;-60
2022/06/10 09:35:19;;;;;;;21.10;4.13;;;;;;;17.68;64.35;101043.91;5052414;28;20473;-59
2022/06/10 09:37:59;;;;;;;16.08;4.38;;;;;;;17.67;64.22;101063.13;5038645;28;20083;-59
2022/06/10 09:40:41;;;;;;;16.17;4.15;;;;;;;17.18;65.70;101056.63;5052702;28;20075;-60
2022/06/10 09:43:16;;;;;;;12.75;4.00;;;;;;;17.30;65.61;101039.25;5039118;28;20036;-59
2022/06/10 09:45:53;;;;;;;17.48;4.07;;;;;;;17.28;66.00;101041.41;5046161;28;20034;-59
2022/06/10 09:48:58;;;;;;;14.00;3.72;;;;;;;17.27;66.41;101049.78;5054274;28;20029;-59
2022/06/10 09:51:51;;;;;;;20.77;4.53;;;;;;;17.28;66.18;101046.00;5052692;28;20033;-59
2022/06/10 09:54:38;;;;;;;16.95;4.60;;;;;;;17.40;66.12;101033.19;5034384;28;20044;-59
2022/06/10 09:57:25;;;;;;;11.95;3.70;;;;;;;17.25;67.32;101031.06;5052868;28;20048;-60
2022/06/10 10:00:11;;;;;;;18.45;4.53;;;;;;;17.28;67.07;101030.59;5053066;28;20076;-59
2022/06/10 10:02:59;;;;;;;21.77;4.47;;;;;;;17.39;66.81;101036.97;5052428;28;20086;-60
2022/06/10 10:05:50;;;;;;;14.48;4.88;;;;;;;17.40;67.52;101044.84;5081157;22;20360;-60
2022/06/10 10:08:40;;;;;;;19.88;5.15;;;;;;;17.47;66.18;101039.25;5092078;28;20036;-60
2022/06/10 10:11:21;;;;;;;12.45;3.72;;;;;;;17.56;66.71;101045.09;5093823;28;20031;-60
2022/06/10 10:14:00;;;;;;;15.50;3.85;;;;;;;17.58;66.14;101053.78;5091741;28;20028;-59
2022/06/10 10:16:39;;;;;;;11.38;3.60;;;;;;;17.40;66.69;101050.25;5092500;28;20167;-60
2022/06/10 10:19:23;;;;;;;14.07;4.53;;;;;;;17.45;66.70;101052.22;5091923;28;20032;-59
2022/06/10 10:22:05;;;;;;;16.40;3.80;;;;;;;17.23;66.90;101046.72;5089935;28;20036;-60
2022/06/10 10:24:39;;;;;;;12.18;3.38;;;;;;;17.35;66.98;101049.34;5082351;28;20035;-59
2022/06/10 10:27:33;;;;;;;17.15;4.82;;;;;;;17.22;67.12;101046.97;5092626;28;20035;-60
2022/06/10 10:30:31;;;;;;;17.05;3.70;;;;;;;17.20;67.03;101043.69;5087691;28;20396;-60
2022/06/10 10:33:03;;;;;;;14.63;3.92;;;;;;;17.42;66.68;101042.69;5090332;28;20085;-60
2022/06/10 10:35:44;;;;;;;22.95;4.60;;;;;;;17.47;66.61;101044.66;5091709;28;20051;-59
2022/06/10 10:38:15;;;;;;;11.52;3.72;;;;;;;17.42;66.73;101042.69;5091448;28;20039;-60
2022/06/10 10:40:48;;;;;;;17.30;4.70;;;;;;;17.34;66.96;101048.53;5091343;28;20024;-60
2022/06/10 10:43:28;;;;;;;15.10;3.88;;;;;;;17.35;66.75;101047.47;5092040;28;20024;-60
2022/06/10 10:46:04;;;;;;;14.52;3.92;;;;;;;17.26;67.05;101051.63;5091840;28;20059;-60
2022/06/10 10:49:02;;;;;;;15.63;4.05;;;;;;;17.46;66.69;101053.84;5091717;28;20687;-59
2022/06/10 10:51:40;;;;;;;17.10;3.85;;;;;;;17.34;66.59;101045.81;5084699;28;20408;-60
2022/06/10 10:54:23;;;;;;;21.08;4.57;;;;;;;17.24;67.10;101051.06;5090790;28;20054;-60
2022/06/10 10:56:51;;;;;;;18.40;5.15;;;;;;;17.26;67.25;101053.50;5076046;28;20401;-60
2022/06/10 10:59:36;;;;;;;17.80;4.15;;;;;;;17.15;67.14;101045.22;5072628;28;20109;-60
2022/06/10 11:02:28;;;;;;;18.60;3.97;;;;;;;17.14;66.83;101043.59;5083816;28;20036;-60
2022/06/10 11:05:16;;;;;;;15.15;4.03;;;;;;;17.07;67.23;101042.13;5077456;28;20089;-60
2022/06/10 11:07:43;;;;;;;11.70;3.17;;;;;;;17.06;67.76;101033.19;5077992;28;20094;-60
2022/06/10 11:10:24;;;;;;;12.15;3.90;;;;;;;17.13;67.19;101035.72;5086321;28;20498;-60
2022/06/10 11:12:51;;;;;;;17.55;4.07;;;;;;;17.09;67.30;101051.63;5078180;28;20122;-60
2022/06/10 11:15:17;;;;;;;14.77;4.60;;;;;;;17.02;68.05;101053.66;5093020;28;20016;-60
2022/06/10 11:17:46;;;;;;;14.55;3.78;;;;;;;17.25;67.19;101049.19;5084671;28;20139;-60
2022/06/10 11:20:16;;;;;;;13.98;3.40;;;;;;;17.03;67.30;101068.81;5090947;28;20027;-60
2022/06/10 11:22:44;;;;;;;15.85;4.43;;;;;;;17.23;66.90;101062.13;5076985;28;20083;-60
2022/06/10 11:25:16;;;;;;;11.45;3.80;;;;;;;17.13;66.96;101066.31;5087192;28;20101;-60
2022/06/10 11:27:49;;;;;;;12.32;4.22;;;;;;;17.19;66.94;101067.22;5080434;28;20077;-60
2022/06/10 11:30:15;;;;;;;14.88;3.50;;;;;;;17.19;66.78;101058.28;5092839;28;20075;-60
2022/06/10 11:32:51;;;;;;;11.63;3.75;;;;;;;17.05;67.42;101058.59;5078409;28;20500;-60
2022/06/10 11:35:40;;;;;;;13.48;4.35;;;;;;;17.19;67.04;101059.09;5078348;28;20468;-60
2022/06/10 11:38:09;;;;;;;15.43;3.47;;;;;;;16.93;66.61;101065.09;5092353;28;20042;-60
2022/06/10 11:40:49;;;;;;;17.38;5.05;;;;;;;17.13;67.70;101065.47;5092816;28;20077;-60
2022/06/10 11:43:46;;;;;;;16.98;3.72;;;;;;;16.88;68.23;101061.28;5092725;28;20031;-60
2022/06/10 11:46:36;;;;;;;14.43;4.38;;;;;;;16.85;68.60;101066.31;5071335;28;20190;-60
2022/06/10 11:49:29;;;;;;;14.40;4.00;;;;;;;16.73;68.38;101065.56;5071164;28;20020;-60
2022/06/10 11:52:07;;;;;;;9.90;3.60;;;;;;;16.69;68.50;101067.06;5072136;28;20428;-60
2022/06/10 11:55:03;;;;;;;19.65;4.78;;;;;;;17.06;67.29;101062.94;5075940;28;20431;-60
2022/06/10 12:01:04;;;;;;;17.27;4.00;;;;;;;16.68;67.87;101074.34;5091743;28;20414;-60
2022/06/10 12:03:33;;;;;;;13.63;3.63;;;;;;;16.79;66.95;101075.41;5063258;28;20123;-60
2022/06/10 12:06:12;;;;;;;13.52;4.43;;;;;;;16.92;67.21;101080.50;5071589;28;20044;-60